Time;durP1;ratioP1;P1;durP2;ratioP2;P2;SDS_P1;SDS_P2;PMS_P1;PMS_P2;Temp;Humidity;BMP_temperature;BMP_pressure;BME280_temperature;BME280_humidity;BME280_pressure;Samples;Min_cycle;Max_cycle;Signal;HPM_P1;HPM_P2
2022/12/10 00:01:12;;;;;;;65.45;27.40;;;-1.80;99.90;;;;;;5010063;28;20045;-73
2022/12/10 00:03:38;;;;;;;61.80;27.85;;;-1.80;99.90;;;;;;5010441;28;20034;-77
2022/12/10 00:06:06;;;;;;;64.97;27.92;;;-1.90;99.90;;;;;;5010188;28;20124;-75
2022/12/10 00:08:33;;;;;;;66.22;27.58;;;-1.80;99.90;;;;;;5010251;28;20049;-73
2022/12/10 00:10:59;;;;;;;68.68;28.67;;;-1.90;99.90;;;;;;4992201;28;20113;-78
2022/12/10 00:13:25;;;;;;;68.38;28.38;;;-1.90;99.90;;;;;;4992135;28;20633;-73
2022/12/10 00:15:50;;;;;;;70.90;29.50;;;-1.80;99.90;;;;;;5010262;28;20052;-71
2022/12/10 00:18:16;;;;;;;65.32;29.55;;;-1.90;99.90;;;;;;4988607;28;20050;-72
2022/12/10 00:20:42;;;;;;;68.30;27.40;;;-1.90;99.90;;;;;;4990639;28;20050;-72
2022/12/10 00:23:07;;;;;;;65.40;27.85;;;-1.90;99.90;;;;;;4990383;28;20050;-71
2022/12/10 00:25:33;;;;;;;71.20;30.60;;;-1.90;99.90;;;;;;4989905;28;20078;-72
2022/12/10 00:27:58;;;;;;;69.68;29.80;;;-1.90;99.90;;;;;;4998629;28;20548;-73
2022/12/10 00:30:24;;;;;;;76.75;30.05;;;-1.90;99.90;;;;;;4991306;28;20974;-72
2022/12/10 00:32:50;;;;;;;71.35;30.70;;;-1.90;99.90;;;;;;5009721;28;20043;-71
2022/12/10 00:35:16;;;;;;;62.15;29.17;;;-1.90;99.90;;;;;;5009040;28;20055;-71
2022/12/10 00:37:41;;;;;;;65.10;27.92;;;-1.90;99.90;;;;;;4991881;28;20054;-75
2022/12/10 00:40:08;;;;;;;70.85;30.15;;;-1.90;99.90;;;;;;4991574;28;20124;-80
2022/12/10 00:42:33;;;;;;;69.28;31.05;;;-1.90;99.90;;;;;;5009355;28;20153;-72
2022/12/10 00:44:59;;;;;;;81.03;32.40;;;-1.90;99.90;;;;;;5008741;28;20121;-77
2022/12/10 00:47:25;;;;;;;62.00;27.80;;;-1.90;99.90;;;;;;4975691;28;20066;-73
2022/12/10 00:49:50;;;;;;;71.40;29.92;;;-1.90;99.90;;;;;;4991725;28;20142;-72
2022/12/10 00:52:16;;;;;;;70.43;30.20;;;-1.90;99.90;;;;;;4991581;28;20437;-72
2022/12/10 00:54:41;;;;;;;77.10;29.73;;;-1.90;99.90;;;;;;4991482;28;20062;-75
2022/12/10 00:57:07;;;;;;;69.97;30.63;;;-1.90;99.90;;;;;;5008921;28;20048;-73
2022/12/10 00:59:33;;;;;;;72.90;29.75;;;-2.00;99.90;;;;;;5009755;28;20054;-74
2022/12/10 01:01:58;;;;;;;69.65;29.70;;;-1.40;99.90;;;;;;5009003;28;20058;-73
2022/12/10 01:04:24;;;;;;;68.65;28.60;;;-2.00;99.90;;;;;;5009450;28;20125;-73
2022/12/10 01:06:52;;;;;;;71.22;30.48;;;-2.00;99.90;;;;;;4974295;28;20104;-71
2022/12/10 01:09:21;;;;;;;69.90;29.63;;;-2.10;99.90;;;;;;5009026;28;20041;-72
2022/12/10 01:11:49;;;;;;;75.30;30.15;;;-2.10;99.90;;;;;;5008755;28;20112;-72
2022/12/10 01:14:18;;;;;;;69.25;29.58;;;-2.10;99.90;;;;;;4991251;28;20069;-70
2022/12/10 01:16:45;;;;;;;77.85;30.80;;;-2.10;99.90;;;;;;5008708;28;20077;-72
2022/12/10 01:19:11;;;;;;;73.78;29.17;;;-2.10;99.90;;;;;;4989738;28;20454;-74
2022/12/10 01:21:37;;;;;;;69.90;29.40;;;-2.20;99.90;;;;;;4972069;28;20047;-78
2022/12/10 01:24:03;;;;;;;73.78;29.83;;;-2.20;99.90;;;;;;4971810;28;20077;-72
2022/12/10 01:26:32;;;;;;;73.05;30.30;;;-2.20;99.90;;;;;;4989283;28;20719;-72
2022/12/10 01:28:58;;;;;;;70.13;29.55;;;-2.30;99.90;;;;;;4985733;28;20053;-72
2022/12/10 01:31:33;;;;;;;60.75;28.08;;;-2.30;99.90;;;;;;4990781;28;20045;-73
2022/12/10 01:34:00;;;;;;;67.70;28.30;;;-2.30;99.90;;;;;;5009040;28;20096;-77
2022/12/10 01:36:36;;;;;;;68.22;30.25;;;-2.30;99.90;;;;;;5008870;28;20066;-72
2022/12/10 01:39:04;;;;;;;64.70;29.17;;;-2.30;99.90;;;;;;4990821;28;20120;-72
2022/12/10 01:41:39;;;;;;;67.85;29.42;;;-2.40;99.90;;;;;;5009578;28;20454;-75
2022/12/10 01:44:08;;;;;;;69.78;27.83;;;-2.40;99.90;;;;;;5012459;28;20088;-72
2022/12/10 01:46:36;;;;;;;68.55;30.02;;;-2.40;99.90;;;;;;5013006;28;20045;-74
2022/12/10 01:49:05;;;;;;;74.30;29.88;;;-2.40;99.90;;;;;;5012967;28;20088;-73
2022/12/10 01:51:33;;;;;;;68.45;29.42;;;-2.50;99.90;;;;;;4994659;28;20593;-71
2022/12/10 01:54:00;;;;;;;69.80;29.77;;;-2.50;99.90;;;;;;5010391;28;20141;-73
2022/12/10 01:56:26;;;;;;;70.55;29.77;;;-2.50;99.90;;;;;;5012191;28;20089;-73
2022/12/10 01:58:56;;;;;;;76.75;29.00;;;-2.50;99.90;;;;;;4994965;28;20085;-71
2022/12/10 02:01:35;;;;;;;68.30;28.80;;;-2.50;99.90;;;;;;4992792;28;20049;-72
2022/12/10 02:04:23;;;;;;;80.22;29.67;;;-2.50;99.90;;;;;;5012423;28;20042;-72
2022/12/10 02:07:14;;;;;;;71.53;28.92;;;-2.50;99.90;;;;;;4994289;28;20541;-72
2022/12/10 02:09:54;;;;;;;73.50;29.27;;;-2.50;99.90;;;;;;5012230;28;20177;-71
2022/12/10 02:12:26;;;;;;;71.72;29.40;;;-2.50;99.90;;;;;;4992485;28;20044;-72
2022/12/10 02:15:00;;;;;;;70.75;28.60;;;-2.50;99.90;;;;;;5012265;28;20086;-73
2022/12/10 02:17:42;;;;;;;71.47;30.65;;;-2.50;99.90;;;;;;4994471;28;20057;-73
2022/12/10 02:20:31;;;;;;;76.18;30.50;;;-2.40;99.90;;;;;;5011957;28;20529;-72
2022/12/10 02:23:05;;;;;;;92.03;33.35;;;-2.50;99.90;;;;;;5010151;28;20042;-73
2022/12/10 02:25:48;;;;;;;70.40;30.13;;;-2.40;99.90;;;;;;4994038;28;20426;-78
2022/12/10 02:28:44;;;;;;;79.47;30.65;;;-2.50;99.90;;;;;;4994024;28;20064;-71
2022/12/10 02:31:14;;;;;;;78.47;31.00;;;-2.50;99.90;;;;;;5011705;28;20493;-75
2022/12/10 02:33:46;;;;;;;79.03;32.30;;;-2.50;99.90;;;;;;4992201;28;20120;-77
2022/12/10 02:36:14;;;;;;;73.53;30.40;;;-2.40;99.90;;;;;;5011802;28;20045;-74
2022/12/10 02:38:40;;;;;;;75.43;30.88;;;-2.40;99.90;;;;;;5011733;28;20049;-76
2022/12/10 02:41:11;;;;;;;79.43;32.15;;;-2.50;99.90;;;;;;4993935;28;20046;-73
2022/12/10 02:43:37;;;;;;;71.68;30.90;;;-2.50;99.90;;;;;;4992112;28;20050;-81
2022/12/10 02:46:05;;;;;;;79.90;31.13;;;-2.50;99.90;;;;;;4994174;28;20073;-71
2022/12/10 02:48:32;;;;;;;81.45;32.88;;;-2.50;99.90;;;;;;5011357;28;20050;-72
2022/12/10 02:50:58;;;;;;;79.32;31.95;;;-2.50;99.90;;;;;;5011606;28;20129;-72
2022/12/10 02:53:23;;;;;;;86.10;32.92;;;-2.50;99.90;;;;;;4992725;28;20136;-72
2022/12/10 02:56:10;;;;;;;75.45;31.50;;;-2.50;99.90;;;;;;4986883;28;20111;-72
2022/12/10 02:58:56;;;;;;;78.20;30.38;;;-2.50;99.90;;;;;;4991535;28;20555;-72
2022/12/10 03:01:38;;;;;;;77.97;32.83;;;-2.50;99.90;;;;;;4981865;28;20064;-75
2022/12/10 03:04:16;;;;;;;76.68;31.17;;;-2.50;99.90;;;;;;4992859;28;20141;-72
2022/12/10 03:06:52;;;;;;;89.13;32.50;;;-2.50;99.90;;;;;;5011035;28;20516;-72
2022/12/10 03:09:29;;;;;;;87.80;34.30;;;-2.50;99.90;;;;;;5010997;28;20042;-72
2022/12/10 03:12:06;;;;;;;80.10;32.70;;;-2.60;99.90;;;;;;4991589;28;20054;-71
2022/12/10 03:14:33;;;;;;;74.47;30.40;;;-2.60;99.90;;;;;;5005842;28;20649;-72
2022/12/10 03:17:01;;;;;;;86.38;31.55;;;-2.60;99.90;;;;;;5007108;28;20691;-70
2022/12/10 03:19:47;;;;;;;81.43;33.00;;;-2.60;99.90;;;;;;5003450;28;20478;-72
2022/12/10 03:22:15;;;;;;;77.47;32.08;;;-2.60;99.90;;;;;;4992358;28;20174;-71
2022/12/10 03:24:43;;;;;;;74.95;32.53;;;-2.60;99.90;;;;;;4973549;28;20107;-71
2022/12/10 03:27:10;;;;;;;87.28;31.15;;;-2.70;99.90;;;;;;5010721;28;20121;-72
2022/12/10 03:29:41;;;;;;;75.93;30.60;;;-2.60;99.90;;;;;;4979342;28;20057;-71
2022/12/10 03:32:07;;;;;;;85.43;32.00;;;-2.70;99.90;;;;;;4992094;28;20133;-71
2022/12/10 03:34:34;;;;;;;81.25;33.83;;;-2.70;99.90;;;;;;5009510;28;20050;-73
2022/12/10 03:37:01;;;;;;;79.60;32.47;;;-2.60;99.90;;;;;;5009960;28;20074;-71
2022/12/10 03:39:27;;;;;;;76.28;31.95;;;-2.60;99.90;;;;;;5010434;28;20049;-71
2022/12/10 03:41:52;;;;;;;82.75;31.83;;;-2.60;99.90;;;;;;5010065;28;20057;-71
2022/12/10 03:44:33;;;;;;;87.78;33.25;;;-2.70;99.90;;;;;;4990701;28;20051;-71
2022/12/10 03:46:59;;;;;;;79.13;31.88;;;-2.70;99.90;;;;;;4992842;28;20065;-71
2022/12/10 03:49:25;;;;;;;79.43;31.75;;;-2.10;99.90;;;;;;5009103;28;20117;-71
2022/12/10 03:51:51;;;;;;;81.15;30.85;;;-2.70;99.90;;;;;;4992472;28;20454;-71
2022/12/10 03:54:17;;;;;;;81.22;32.67;;;-2.70;99.90;;;;;;5008991;28;20061;-71
2022/12/10 03:56:42;;;;;;;88.85;33.85;;;-2.80;99.90;;;;;;5009951;28;20058;-71
2022/12/10 03:59:08;;;;;;;79.18;31.40;;;-2.70;99.90;;;;;;5009611;28;20046;-79
2022/12/10 04:01:34;;;;;;;93.13;33.55;;;-2.70;99.90;;;;;;5009091;28;20041;-71
2022/12/10 04:03:59;;;;;;;89.60;34.08;;;-2.70;99.90;;;;;;5007168;28;20141;-71
2022/12/10 04:06:25;;;;;;;85.90;31.75;;;-2.70;99.90;;;;;;5009711;28;20739;-71
2022/12/10 04:08:52;;;;;;;81.38;33.20;;;-2.70;99.90;;;;;;5009664;28;20037;-71
2022/12/10 04:11:18;;;;;;;87.30;32.88;;;-2.70;99.90;;;;;;5009152;28;20056;-70
2022/12/10 04:16:31;;;;;;;82.07;31.38;;;-2.70;99.90;;;;;;5009453;28;20050;-71
2022/12/10 04:19:11;;;;;;;87.20;31.58;;;-2.70;99.90;;;;;;4991396;28;20053;-71
2022/12/10 04:27:30;;;;;;;85.30;32.60;;;-2.60;99.90;;;;;;4991112;28;20046;-72
2022/12/10 04:29:57;;;;;;;85.65;32.55;;;-2.60;99.90;;;;;;4990961;28;20046;-72
2022/12/10 04:32:25;;;;;;;87.40;34.60;;;-2.60;99.90;;;;;;5009450;28;20091;-72
2022/12/10 04:34:50;;;;;;;89.13;32.05;;;-2.60;99.90;;;;;;4991784;28;20058;-71
2022/12/10 04:37:17;;;;;;;93.45;34.58;;;-2.50;99.90;;;;;;4991683;28;20161;-71
2022/12/10 04:39:43;;;;;;;92.38;35.28;;;-2.50;99.90;;;;;;4990802;28;20069;-73
2022/12/10 04:42:09;;;;;;;101.63;35.60;;;-2.40;99.90;;;;;;5009327;28;20775;-70
2022/12/10 04:44:35;;;;;;;94.22;36.47;;;-2.40;99.90;;;;;;4988134;28;20050;-71
2022/12/10 04:47:01;;;;;;;99.90;35.42;;;-2.40;99.90;;;;;;5008904;28;20141;-71
2022/12/10 04:49:27;;;;;;;106.75;33.72;;;-2.30;99.90;;;;;;4991361;28;20130;-72
2022/12/10 04:51:52;;;;;;;103.95;36.33;;;-2.30;99.90;;;;;;4993121;28;20129;-72
2022/12/10 04:54:19;;;;;;;106.63;34.95;;;-2.30;99.90;;;;;;5028573;28;20049;-72
2022/12/10 04:56:45;;;;;;;102.07;36.20;;;-2.20;99.90;;;;;;5002379;28;20152;-71
2022/12/10 04:59:11;;;;;;;117.75;36.65;;;-2.20;99.90;;;;;;5008962;28;20132;-72
2022/12/10 05:01:37;;;;;;;122.85;37.65;;;-2.20;99.90;;;;;;5008997;28;20045;-70
2022/12/10 05:04:05;;;;;;;115.10;37.88;;;-2.10;99.90;;;;;;4991327;28;20041;-71
2022/12/10 05:06:32;;;;;;;125.93;38.80;;;-2.10;99.90;;;;;;5009021;28;20488;-73
2022/12/10 05:08:57;;;;;;;116.25;35.42;;;-2.10;99.90;;;;;;5008893;28;20088;-73
2022/12/10 05:11:25;;;;;;;119.82;38.35;;;-2.10;99.90;;;;;;4990411;28;20116;-72
2022/12/10 05:13:52;;;;;;;142.55;38.60;;;-2.00;99.90;;;;;;4990512;28;20050;-71
2022/12/10 05:16:20;;;;;;;126.75;37.60;;;-2.00;99.90;;;;;;5009040;28;20053;-71
2022/12/10 05:18:46;;;;;;;135.45;37.45;;;-2.00;99.90;;;;;;4994668;28;20050;-71
2022/12/10 05:21:15;;;;;;;138.07;39.33;;;-2.00;99.90;;;;;;5012358;28;20206;-74
2022/12/10 05:23:44;;;;;;;197.68;40.10;;;-2.00;99.90;;;;;;5010288;28;20200;-71
2022/12/10 05:26:23;;;;;;;141.73;38.88;;;-2.00;99.90;;;;;;5012449;28;20042;-78
2022/12/10 05:28:52;;;;;;;158.05;39.03;;;-2.00;99.90;;;;;;4994501;28;20057;-75
2022/12/10 05:31:24;;;;;;;140.65;37.72;;;-2.00;99.90;;;;;;5012273;28;20141;-70
2022/12/10 05:33:50;;;;;;;146.07;38.97;;;-2.00;99.90;;;;;;5011661;28;20119;-71
2022/12/10 05:36:18;;;;;;;155.10;38.63;;;-1.90;99.90;;;;;;5011668;28;20125;-71
2022/12/10 05:38:44;;;;;;;164.55;40.28;;;-1.90;99.90;;;;;;4994191;28;20056;-71
2022/12/10 05:41:19;;;;;;;155.10;37.20;;;-1.90;99.90;;;;;;4978360;28;20077;-79
2022/12/10 05:43:46;;;;;;;215.45;41.08;;;-1.90;99.90;;;;;;5011754;28;20053;-72
2022/12/10 05:46:14;;;;;;;160.63;37.90;;;-1.90;99.90;;;;;;4994775;28;20112;-72
2022/12/10 05:48:40;;;;;;;144.15;37.15;;;-1.90;99.90;;;;;;4994735;28;20698;-71
2022/12/10 05:51:11;;;;;;;133.95;38.40;;;-1.90;99.90;;;;;;4994611;28;20188;-70
2022/12/10 05:53:37;;;;;;;181.00;39.15;;;-1.00;99.90;;;;;;5012032;28;20179;-71
2022/12/10 05:56:06;;;;;;;161.60;38.72;;;-1.90;99.90;;;;;;4994786;28;20484;-72
2022/12/10 05:58:32;;;;;;;229.13;38.88;;;-1.90;99.90;;;;;;5011690;28;20042;-79
2022/12/10 06:00:59;;;;;;;177.82;40.13;;;-1.90;99.90;;;;;;5015911;28;20041;-71
2022/12/10 06:03:26;;;;;;;205.77;36.50;;;-1.90;99.90;;;;;;5011989;28;20045;-71
2022/12/10 06:05:52;;;;;;;226.43;37.45;;;-1.90;99.90;;;;;;5012915;28;20053;-71
2022/12/10 06:08:18;;;;;;;218.95;38.22;;;-1.90;99.90;;;;;;5018020;28;20506;-72
2022/12/10 06:10:43;;;;;;;218.77;37.75;;;-1.90;99.90;;;;;;5013955;28;20075;-74
2022/12/10 06:13:09;;;;;;;162.32;35.22;;;-1.90;99.90;;;;;;5031574;28;20045;-71
2022/12/10 06:15:39;;;;;;;324.48;40.40;;;-1.90;99.90;;;;;;5026136;28;20049;-72
2022/12/10 06:18:04;;;;;;;194.98;36.63;;;-1.90;99.90;;;;;;5031128;28;20045;-72
2022/12/10 06:20:30;;;;;;;231.50;36.75;;;-1.80;99.90;;;;;;5031447;28;20774;-70
2022/12/10 06:22:56;;;;;;;234.60;38.17;;;-1.90;99.90;;;;;;5031417;28;20049;-74
2022/12/10 06:25:21;;;;;;;227.57;35.17;;;-1.90;99.90;;;;;;5012180;28;20042;-72
2022/12/10 06:27:47;;;;;;;278.88;40.33;;;-1.80;99.90;;;;;;5030981;28;20530;-75
2022/12/10 06:30:13;;;;;;;174.02;35.85;;;-1.90;99.90;;;;;;5013223;28;20373;-72
2022/12/10 06:32:39;;;;;;;187.48;38.35;;;-1.90;99.90;;;;;;5031549;28;20042;-78
2022/12/10 06:35:05;;;;;;;187.82;36.67;;;-1.80;99.90;;;;;;5031024;28;20049;-72
2022/12/10 06:37:31;;;;;;;129.73;36.60;;;-1.80;99.90;;;;;;5016462;28;20450;-72
2022/12/10 06:39:56;;;;;;;163.30;37.28;;;-1.80;99.90;;;;;;4993929;28;20081;-71
2022/12/10 06:42:22;;;;;;;198.90;36.35;;;-1.80;99.90;;;;;;4994023;28;20046;-72
2022/12/10 06:44:48;;;;;;;211.18;35.30;;;-1.80;99.90;;;;;;4993689;28;20121;-71
2022/12/10 06:47:14;;;;;;;217.75;37.60;;;-1.80;99.90;;;;;;5012230;28;20073;-70
2022/12/10 06:49:40;;;;;;;269.48;35.30;;;-1.80;99.90;;;;;;5011506;28;20072;-72
2022/12/10 06:52:06;;;;;;;230.30;34.50;;;-1.90;99.90;;;;;;5011203;28;20054;-71
2022/12/10 06:54:32;;;;;;;204.45;33.45;;;-1.90;99.90;;;;;;5010945;28;20054;-71
2022/12/10 06:56:58;;;;;;;169.10;31.20;;;-1.90;99.90;;;;;;4994318;28;20061;-70
2022/12/10 06:59:24;;;;;;;178.77;28.98;;;-1.90;99.90;;;;;;5011001;28;20052;-72
2022/12/10 07:01:50;;;;;;;185.82;32.08;;;-1.90;99.90;;;;;;5010922;28;20144;-72
2022/12/10 07:04:16;;;;;;;99.22;31.50;;;-1.90;99.90;;;;;;4993891;28;20137;-70
2022/12/10 07:06:42;;;;;;;135.68;31.60;;;-1.90;99.90;;;;;;5011086;28;20049;-77
2022/12/10 07:09:09;;;;;;;153.20;32.20;;;-1.90;99.90;;;;;;5006535;28;20483;-71
2022/12/10 07:11:36;;;;;;;134.95;30.13;;;-1.90;99.90;;;;;;5030789;28;20045;-76
2022/12/10 07:14:02;;;;;;;131.82;29.63;;;-1.90;99.90;;;;;;5012607;28;20473;-71
2022/12/10 07:16:31;;;;;;;159.23;32.60;;;-1.90;99.90;;;;;;5030699;28;20053;-72
2022/12/10 07:18:59;;;;;;;117.95;29.50;;;-1.90;99.90;;;;;;5012652;28;20096;-71
2022/12/10 07:21:34;;;;;;;127.05;29.52;;;-1.90;99.90;;;;;;4993535;28;20156;-74
2022/12/10 07:24:04;;;;;;;112.63;28.30;;;-1.90;99.90;;;;;;5011057;28;20042;-72
2022/12/10 07:26:34;;;;;;;136.15;28.65;;;-1.90;99.90;;;;;;5012039;28;20046;-71
2022/12/10 07:29:01;;;;;;;114.40;30.13;;;-1.90;99.90;;;;;;4994336;28;20500;-72
2022/12/10 07:31:27;;;;;;;182.65;31.08;;;-1.90;99.90;;;;;;5023538;28;20053;-73
2022/12/10 07:33:54;;;;;;;144.43;32.72;;;-1.90;99.90;;;;;;5030229;28;20090;-75
2022/12/10 07:36:22;;;;;;;183.38;31.98;;;-1.90;99.90;;;;;;5010453;28;20053;-71
2022/12/10 07:38:48;;;;;;;166.43;28.05;;;-1.10;99.90;;;;;;5030223;28;20049;-72
2022/12/10 07:41:15;;;;;;;117.32;28.77;;;-1.90;99.90;;;;;;5013415;28;20049;-72
2022/12/10 07:43:43;;;;;;;197.40;31.45;;;-1.90;99.90;;;;;;4992393;28;20135;-70
2022/12/10 07:46:10;;;;;;;167.85;30.38;;;-2.00;99.90;;;;;;5010172;28;20409;-71
2022/12/10 07:48:38;;;;;;;127.38;30.58;;;-2.00;99.90;;;;;;5011289;28;20062;-71
2022/12/10 07:51:04;;;;;;;194.65;34.55;;;-1.90;99.90;;;;;;5001809;28;20492;-71
2022/12/10 07:53:30;;;;;;;185.10;33.53;;;-1.90;99.90;;;;;;5029652;28;20053;-71
2022/12/10 07:55:56;;;;;;;265.30;40.00;;;-1.90;99.90;;;;;;5030007;28;20053;-71
2022/12/10 07:58:22;;;;;;;170.43;34.75;;;-2.00;99.90;;;;;;5029927;28;20401;-72
2022/12/10 08:00:47;;;;;;;211.75;35.33;;;-1.10;99.90;;;;;;5024307;28;20042;-74
2022/12/10 08:03:13;;;;;;;174.00;33.35;;;-1.90;99.90;;;;;;5010031;28;20048;-70
2022/12/10 08:05:39;;;;;;;124.82;33.80;;;-2.00;99.90;;;;;;4992461;28;20520;-71
2022/12/10 08:08:04;;;;;;;184.75;35.15;;;-2.00;99.90;;;;;;5008701;28;20045;-72
2022/12/10 08:10:33;;;;;;;136.18;31.25;;;-1.90;99.90;;;;;;5007899;28;20084;-74
2022/12/10 08:12:58;;;;;;;128.77;33.08;;;-2.00;99.90;;;;;;4976051;28;20076;-72
2022/12/10 08:15:24;;;;;;;236.98;34.55;;;-2.00;99.90;;;;;;5009801;28;20620;-71
2022/12/10 08:17:50;;;;;;;118.68;31.63;;;-2.00;99.90;;;;;;4991991;28;20132;-73
2022/12/10 08:20:16;;;;;;;112.53;30.48;;;-2.00;99.90;;;;;;4991843;28;20128;-73
2022/12/10 08:22:42;;;;;;;140.80;31.85;;;-1.60;99.90;;;;;;5009888;28;20455;-72
2022/12/10 08:25:07;;;;;;;113.03;28.77;;;-2.00;99.90;;;;;;5009672;28;20049;-71
2022/12/10 08:27:33;;;;;;;111.60;29.63;;;-1.90;99.90;;;;;;5009697;28;20133;-74
2022/12/10 08:29:59;;;;;;;115.53;30.02;;;-1.90;99.90;;;;;;5009722;28;20050;-71
2022/12/10 08:32:24;;;;;;;141.93;30.27;;;-1.90;99.90;;;;;;5009595;28;20799;-72
2022/12/10 08:34:50;;;;;;;87.53;28.92;;;-1.90;99.90;;;;;;4991538;28;20064;-72
2022/12/10 08:37:15;;;;;;;96.60;28.55;;;-1.90;99.90;;;;;;5009524;28;20054;-71
2022/12/10 08:39:41;;;;;;;136.40;28.38;;;-1.90;99.90;;;;;;4992187;28;20088;-72
2022/12/10 08:42:07;;;;;;;114.32;28.92;;;-1.90;99.90;;;;;;5009693;28;20037;-71
2022/12/10 08:44:32;;;;;;;118.80;29.55;;;-1.90;99.90;;;;;;5009724;28;20125;-70
2022/12/10 08:46:58;;;;;;;126.30;31.75;;;-1.90;99.90;;;;;;4991648;28;20108;-71
2022/12/10 08:49:24;;;;;;;112.75;28.15;;;-1.90;99.90;;;;;;4991847;28;20054;-70
2022/12/10 08:51:49;;;;;;;128.38;30.67;;;-1.90;99.90;;;;;;5008613;28;20505;-72
2022/12/10 08:54:15;;;;;;;130.02;28.20;;;-1.90;99.90;;;;;;4991572;28;20068;-71
2022/12/10 08:56:40;;;;;;;100.05;27.77;;;-1.90;99.90;;;;;;5009306;28;20095;-71
2022/12/10 08:59:07;;;;;;;154.40;31.75;;;-1.90;99.90;;;;;;4991562;28;20042;-70
2022/12/10 09:01:32;;;;;;;163.05;29.50;;;-1.90;99.90;;;;;;5011034;28;20046;-70
2022/12/10 09:04:00;;;;;;;180.80;29.20;;;-1.90;99.90;;;;;;5017694;28;20046;-71
2022/12/10 09:06:26;;;;;;;118.68;27.77;;;-1.90;99.90;;;;;;5009555;28;20447;-74
2022/12/10 09:08:52;;;;;;;79.90;26.23;;;-1.90;99.90;;;;;;5028306;28;20045;-70
2022/12/10 09:11:23;;;;;;;131.88;27.23;;;-1.90;99.90;;;;;;5011580;28;20476;-72
2022/12/10 09:13:49;;;;;;;90.18;26.90;;;-1.90;99.90;;;;;;5029275;28;20060;-72
2022/12/10 09:16:15;;;;;;;81.20;27.88;;;-1.90;99.90;;;;;;5029150;28;20081;-72
2022/12/10 09:18:41;;;;;;;97.72;26.50;;;-1.90;99.90;;;;;;5011034;28;20527;-73
2022/12/10 09:21:12;;;;;;;125.65;28.00;;;-1.90;99.90;;;;;;5026055;28;20132;-72
2022/12/10 09:23:38;;;;;;;98.32;26.00;;;-1.90;99.90;;;;;;5000710;28;20400;-72
2022/12/10 09:26:09;;;;;;;81.88;25.58;;;-1.80;99.90;;;;;;4971755;28;20057;-71
2022/12/10 09:28:36;;;;;;;101.82;26.38;;;-1.90;99.90;;;;;;4995118;28;20045;-71
2022/12/10 09:31:03;;;;;;;106.97;26.45;;;-1.90;99.90;;;;;;5009040;28;20050;-72
2022/12/10 09:33:30;;;;;;;102.88;26.10;;;-1.80;99.90;;;;;;5023638;28;20057;-71
2022/12/10 09:35:55;;;;;;;75.93;25.33;;;-1.80;99.90;;;;;;5021793;28;20046;-73
2022/12/10 09:38:21;;;;;;;138.00;26.05;;;-1.80;99.90;;;;;;5023024;28;20053;-73
2022/12/10 09:41:09;;;;;;;90.78;25.52;;;-1.90;99.90;;;;;;5009578;28;20053;-72
2022/12/10 09:43:35;;;;;;;89.80;27.42;;;-1.80;99.90;;;;;;5028847;28;20052;-71
2022/12/10 09:46:41;;;;;;;122.80;27.38;;;-0.80;99.90;;;;;;5028732;28;20056;-72
2022/12/10 09:49:29;;;;;;;85.47;23.70;;;-1.80;99.90;;;;;;5010648;28;20045;-73
2022/12/10 09:51:59;;;;;;;82.85;23.33;;;-1.80;99.90;;;;;;5026871;28;20447;-72
2022/12/10 09:54:33;;;;;;;94.07;25.20;;;-1.80;99.90;;;;;;5027900;28;20485;-71
2022/12/10 09:57:00;;;;;;;102.57;25.25;;;-1.80;99.90;;;;;;5028068;28;20057;-74
2022/12/10 09:59:34;;;;;;;86.10;25.05;;;-1.70;99.90;;;;;;5010565;28;20042;-71
2022/12/10 10:02:15;;;;;;;81.53;24.77;;;-1.70;99.90;;;;;;5027020;28;20113;-73
2022/12/10 10:04:41;;;;;;;85.72;24.58;;;-1.70;99.90;;;;;;5014352;28;20050;-72
2022/12/10 10:07:10;;;;;;;97.28;24.77;;;-1.70;99.90;;;;;;5032026;28;20579;-72
2022/12/10 10:09:39;;;;;;;79.00;25.05;;;-1.70;99.90;;;;;;5013882;28;20056;-73
2022/12/10 10:12:14;;;;;;;90.78;25.27;;;-1.60;99.90;;;;;;5005776;28;20121;-72
2022/12/10 10:14:42;;;;;;;105.00;27.17;;;-1.70;99.90;;;;;;5012135;28;20073;-73
2022/12/10 10:17:23;;;;;;;88.35;27.05;;;-1.60;99.90;;;;;;4994404;28;20123;-70
2022/12/10 10:19:49;;;;;;;103.07;25.67;;;-1.60;99.90;;;;;;5011889;28;20046;-73
2022/12/10 10:22:15;;;;;;;81.60;25.45;;;-1.60;99.90;;;;;;5012614;28;20050;-74
2022/12/10 10:24:45;;;;;;;74.75;26.17;;;-1.60;99.90;;;;;;4992516;28;20069;-72
2022/12/10 10:27:19;;;;;;;93.57;26.30;;;-1.60;99.90;;;;;;4974954;28;20050;-72
2022/12/10 10:29:47;;;;;;;84.15;26.67;;;-1.60;99.90;;;;;;4992201;28;20508;-75
2022/12/10 10:32:36;;;;;;;116.25;28.60;;;-1.60;99.90;;;;;;4991988;28;20125;-71
2022/12/10 10:35:03;;;;;;;90.82;26.38;;;-1.60;99.90;;;;;;5010027;28;20119;-72
2022/12/10 10:37:41;;;;;;;100.88;26.92;;;-1.50;99.90;;;;;;5031355;28;20053;-72
2022/12/10 10:40:28;;;;;;;104.90;28.83;;;-1.50;99.90;;;;;;5031385;28;20065;-74
2022/12/10 10:42:56;;;;;;;93.68;25.42;;;-1.50;99.90;;;;;;5025525;28;20493;-72
2022/12/10 10:45:56;;;;;;;95.18;26.83;;;-1.50;99.90;;;;;;5030772;28;20033;-71
2022/12/10 10:48:24;;;;;;;105.20;28.05;;;-1.40;99.90;;;;;;4918391;29;20059;-74
2022/12/10 10:50:52;;;;;;;97.63;28.58;;;-1.50;99.90;;;;;;4950310;29;20047;-72
2022/12/10 10:53:39;;;;;;;102.85;27.50;;;-1.40;99.90;;;;;;4934202;29;20189;-72
2022/12/10 10:56:25;;;;;;;91.68;29.52;;;-1.40;99.90;;;;;;4950236;29;20051;-73
2022/12/10 10:59:00;;;;;;;89.53;27.95;;;-1.40;99.90;;;;;;4950061;29;20087;-73
2022/12/10 11:01:47;;;;;;;120.82;27.10;;;-1.30;99.90;;;;;;4950259;29;20054;-74
2022/12/10 11:04:15;;;;;;;135.75;29.00;;;-1.30;99.90;;;;;;4950256;29;20388;-74
2022/12/10 11:06:41;;;;;;;131.23;29.27;;;-0.90;99.90;;;;;;4950262;29;20181;-75
2022/12/10 11:09:08;;;;;;;136.80;29.17;;;-1.30;99.90;;;;;;4916547;29;20072;-73
2022/12/10 11:11:36;;;;;;;112.35;28.70;;;-1.30;99.90;;;;;;4949886;29;20070;-72
2022/12/10 11:14:25;;;;;;;105.82;27.35;;;-1.30;99.90;;;;;;4933170;29;20056;-72
2022/12/10 11:16:59;;;;;;;110.63;30.30;;;-1.30;99.90;;;;;;4933741;29;20059;-71
2022/12/10 11:19:26;;;;;;;112.32;29.17;;;-1.30;99.90;;;;;;4949719;29;20067;-71
2022/12/10 11:21:52;;;;;;;117.35;28.98;;;-1.20;99.90;;;;;;4933454;29;20062;-72
2022/12/10 11:24:19;;;;;;;102.88;28.85;;;-0.30;99.90;;;;;;4976502;28;20072;-72
2022/12/10 11:27:04;;;;;;;101.22;29.40;;;-1.20;99.90;;;;;;5030530;28;20063;-74
2022/12/10 11:29:46;;;;;;;119.07;28.67;;;-1.20;99.90;;;;;;5012030;28;20049;-72
2022/12/10 11:32:47;;;;;;;99.10;28.67;;;-1.10;99.90;;;;;;5012785;28;20397;-73
2022/12/10 11:35:21;;;;;;;103.55;28.13;;;-1.10;99.90;;;;;;5013338;28;20053;-74
2022/12/10 11:38:08;;;;;;;99.50;27.58;;;-1.10;99.90;;;;;;5012449;28;20045;-75
2022/12/10 11:40:53;;;;;;;109.18;26.85;;;-1.00;99.90;;;;;;5030095;28;20497;-72
2022/12/10 11:43:48;;;;;;;124.90;28.95;;;-1.00;99.90;;;;;;4996482;28;20042;-73
2022/12/10 11:46:33;;;;;;;99.72;27.77;;;-1.00;99.90;;;;;;4991168;28;20390;-73
2022/12/10 11:49:16;;;;;;;119.73;30.03;;;-1.00;99.90;;;;;;5005216;28;20058;-72
2022/12/10 11:52:24;;;;;;;97.68;27.15;;;-1.00;99.90;;;;;;4993031;28;20643;-73
2022/12/10 11:54:59;;;;;;;114.10;29.15;;;-0.90;99.90;;;;;;5009870;28;20057;-72
2022/12/10 11:57:27;;;;;;;;;;;-0.90;99.90;;;;;;4996024;28;20050;-73
2022/12/10 12:00:16;;;;;;;101.65;29.23;;;-0.90;99.90;;;;;;4990694;28;20016;-78
2022/12/10 12:02:59;;;;;;;91.47;29.08;;;-0.90;99.90;;;;;;4983498;28;20065;-77
2022/12/10 12:05:47;;;;;;;102.38;27.55;;;-0.90;99.90;;;;;;4992396;28;20133;-74
2022/12/10 12:08:28;;;;;;;98.88;27.75;;;-0.90;99.90;;;;;;4992304;28;20076;-74
2022/12/10 12:11:18;;;;;;;106.93;27.02;;;-0.90;99.90;;;;;;5010163;28;20046;-74
2022/12/10 12:14:16;;;;;;;96.95;27.15;;;-0.90;99.90;;;;;;5011249;28;20045;-72
2022/12/10 12:16:46;;;;;;;92.25;26.30;;;-0.80;99.90;;;;;;5009980;28;20088;-71
2022/12/10 12:19:28;;;;;;;110.45;28.02;;;-0.80;99.90;;;;;;4991438;28;20093;-74
2022/12/10 12:21:59;;;;;;;80.13;23.98;;;-0.80;99.90;;;;;;5010728;28;20046;-73
2022/12/10 12:24:35;;;;;;;101.50;27.05;;;-0.80;99.90;;;;;;5010271;28;20061;-73
2022/12/10 12:27:14;;;;;;;110.35;27.38;;;-0.80;99.90;;;;;;4991058;28;20516;-75
2022/12/10 12:29:46;;;;;;;126.22;26.92;;;-0.80;99.90;;;;;;5009728;28;20405;-73
2022/12/10 12:32:21;;;;;;;101.75;28.98;;;-0.80;99.90;;;;;;5009808;28;20050;-74
2022/12/10 12:34:55;;;;;;;89.28;27.45;;;-0.10;99.90;;;;;;5027218;28;20048;-73
2022/12/10 12:37:27;;;;;;;72.20;22.90;;;-0.80;99.90;;;;;;5024271;28;20030;-77
2022/12/10 12:40:19;;;;;;;83.03;25.52;;;-0.70;99.90;;;;;;5009623;28;20058;-73
2022/12/10 12:42:54;;;;;;;83.70;24.27;;;-0.70;99.90;;;;;;4992333;28;20045;-72
2022/12/10 12:45:38;;;;;;;;;;;-0.70;99.90;;;;;;5010328;28;20053;-72
2022/12/10 12:48:04;;;;;;;73.75;24.30;;;-0.70;99.90;;;;;;5010221;28;20041;-74